Time;durP1;ratioP1;P1;durP2;ratioP2;P2;SDS_P1;SDS_P2;PMS_P1;PMS_P2;Temp;Humidity;BMP_temperature;BMP_pressure;BME280_temperature;BME280_humidity;BME280_pressure;Samples;Min_cycle;Max_cycle;Signal;HPM_P1;HPM_P2
2023/08/24 00:00:15;;;;;;;3.00;1.40;;;;;;;23.56;46.90;101690.97;16112152;19;130926;-59
2023/08/24 00:05:37;;;;;;;4.90;1.77;;;;;;;23.54;47.21;101688.41;16112222;19;130430;-60
2023/08/24 00:11:00;;;;;;;4.57;1.75;;;;;;;23.55;46.88;101689.28;16113682;19;133594;-60
2023/08/24 00:16:22;;;;;;;3.38;1.23;;;;;;;23.53;46.89;101681.13;16114396;19;131741;-60
2023/08/24 00:21:44;;;;;;;1.90;1.17;;;;;;;23.54;47.06;101677.22;16118111;19;133312;-60
2023/08/24 00:27:06;;;;;;;2.17;1.27;;;;;;;23.54;47.36;101682.81;16106298;19;131034;-60
2023/08/24 00:32:28;;;;;;;3.83;1.40;;;;;;;23.53;46.77;101674.72;16109648;19;129400;-60
2023/08/24 00:37:50;;;;;;;3.75;1.50;;;;;;;23.52;47.14;101668.28;16109398;19;131228;-60
2023/08/24 00:43:13;;;;;;;2.22;1.35;;;;;;;23.50;47.36;101660.16;16107377;19;131977;-60
2023/08/24 00:48:35;;;;;;;2.63;1.60;;;;;;;23.50;46.71;101654.59;16107282;19;129705;-60
2023/08/24 00:53:57;;;;;;;4.15;1.50;;;;;;;23.50;47.36;101649.00;16112490;19;130842;-60
2023/08/24 00:59:19;;;;;;;1.67;1.10;;;;;;;23.49;47.37;101657.66;16108620;19;133311;-59
2023/08/24 01:04:42;;;;;;;3.95;1.30;;;;;;;23.49;47.06;101657.66;16109966;19;133958;-60
2023/08/24 01:10:06;;;;;;;2.15;1.38;;;;;;;23.48;46.83;101661.53;16112152;19;130363;-60
2023/08/24 01:15:51;;;;;;;2.60;1.30;;;;;;;23.49;47.06;101652.06;16103225;19;129934;-60
2023/08/24 01:21:15;;;;;;;3.00;1.50;;;;;;;23.47;47.08;101649.50;16108187;19;130659;-59
2023/08/24 01:26:38;;;;;;;3.65;1.40;;;;;;;23.48;47.11;101661.53;16106048;19;131289;-59
2023/08/24 01:32:00;;;;;;;2.38;1.25;;;;;;;23.46;46.94;101670.16;16108126;19;130029;-60
2023/08/24 01:37:22;;;;;;;1.27;1.10;;;;;;;23.46;47.12;101630.25;16109637;19;130559;-60
2023/08/24 01:43:05;;;;;;;3.67;1.38;;;;;;;23.47;47.15;101643.09;16108291;19;129216;-60
2023/08/24 01:48:28;;;;;;;2.70;1.20;;;;;;;23.45;47.07;101639.72;16107614;19;130585;-60
2023/08/24 01:53:51;;;;;;;1.95;1.40;;;;;;;23.45;46.98;101651.72;16104805;19;129838;-60
2023/08/24 01:59:13;;;;;;;2.30;1.30;;;;;;;23.45;46.98;101643.34;16102985;19;130033;-60
2023/08/24 02:04:35;;;;;;;2.17;1.45;;;;;;;23.46;47.05;101630.25;16106300;19;129714;-60
2023/08/24 02:09:57;;;;;;;2.30;1.38;;;;;;;23.45;47.12;101612.63;16109351;19;132189;-60
2023/08/24 02:15:19;;;;;;;2.72;1.50;;;;;;;23.46;47.20;101605.09;16123288;19;130726;-60
2023/08/24 02:20:41;;;;;;;2.63;1.50;;;;;;;23.45;46.92;101597.84;16121209;19;129833;-60
2023/08/24 02:26:04;;;;;;;4.53;1.88;;;;;;;23.44;46.76;101582.19;16122619;19;130192;-60
2023/08/24 02:31:26;;;;;;;3.63;1.35;;;;;;;23.43;46.96;101552.56;16121207;19;129831;-60
2023/08/24 02:36:48;;;;;;;1.67;1.30;;;;;;;23.43;47.15;101547.84;16124200;19;129850;-59
2023/08/24 02:42:10;;;;;;;2.55;1.48;;;;;;;23.44;46.89;101523.53;16120201;19;129538;-59
2023/08/24 02:47:32;;;;;;;5.00;1.73;;;;;;;23.43;47.10;101479.97;16118587;19;129425;-60
2023/08/24 02:52:54;;;;;;;2.13;1.40;;;;;;;23.41;47.08;101504.53;16123231;19;130706;-60
2023/08/24 02:58:16;;;;;;;2.08;1.30;;;;;;;23.41;47.09;101505.38;16121474;19;131193;-60
2023/08/24 03:03:38;;;;;;;3.45;1.30;;;;;;;23.41;47.12;101487.75;16117125;19;129555;-59
2023/08/24 03:09:03;;;;;;;1.42;1.00;;;;;;;23.41;47.36;101482.19;16119255;19;130998;-59
2023/08/24 03:14:25;;;;;;;;;;;;;;;23.38;47.30;101479.94;16118513;19;130522;-60
2023/08/24 03:19:47;;;;;;;3.45;1.17;;;;;;;23.40;46.91;101472.13;16118037;19;131096;-60
2023/08/24 03:25:09;;;;;;;1.27;1.00;;;;;;;23.38;47.23;101466.81;16116124;19;130841;-59
2023/08/24 03:30:31;;;;;;;2.75;1.38;;;;;;;23.38;47.07;101452.03;16117015;19;130286;-60
2023/08/24 03:35:53;;;;;;;1.95;1.30;;;;;;;23.38;47.37;101449.22;16115970;19;130976;-60
2023/08/24 03:41:15;;;;;;;3.20;1.20;;;;;;;23.37;47.21;101437.22;16114980;19;129582;-60
2023/08/24 03:46:37;;;;;;;3.35;1.30;;;;;;;23.37;47.34;101436.38;16117918;19;129604;-60
2023/08/24 03:51:59;;;;;;;1.60;1.00;;;;;;;23.37;47.04;101423.25;16114987;19;129686;-59
2023/08/24 03:57:21;;;;;;;2.35;1.27;;;;;;;23.38;47.40;101410.16;16116683;19;129760;-59
2023/08/24 04:02:44;;;;;;;2.40;1.20;;;;;;;23.38;47.03;101401.78;16112892;19;130322;-60
2023/08/24 04:08:07;;;;;;;1.70;1.20;;;;;;;23.37;47.59;101405.66;16110737;19;130257;-60
2023/08/24 04:13:29;;;;;;;1.75;1.00;;;;;;;23.38;47.44;101415.72;16112031;19;129843;-59
2023/08/24 04:18:51;;;;;;;1.05;0.93;;;;;;;23.36;47.07;101415.97;16114623;19;129622;-60
2023/08/24 04:24:13;;;;;;;1.92;1.17;;;;;;;23.33;47.55;101420.16;16110339;19;131153;-60
2023/08/24 04:29:35;;;;;;;1.52;1.42;;;;;;;23.34;47.15;101430.22;16108447;19;130746;-61
2023/08/24 04:34:57;;;;;;;2.47;1.60;;;;;;;23.33;47.28;101420.16;16111652;19;130534;-60
2023/08/24 04:40:19;;;;;;;1.75;1.20;;;;;;;23.33;47.32;101420.16;16107385;19;129762;-59
2023/08/24 04:45:40;;;;;;;1.30;1.10;;;;;;;23.33;47.64;101419.28;16109918;19;129542;-60
2023/08/24 04:51:02;;;;;;;1.80;1.25;;;;;;;23.32;47.48;101424.06;16113149;19;129343;-60
2023/08/24 04:56:25;;;;;;;1.25;0.90;;;;;;;23.31;47.39;101430.75;16107109;19;130260;-60
2023/08/24 05:01:47;;;;;;;1.48;1.30;;;;;;;23.31;47.17;101432.69;16110532;19;130856;-60
2023/08/24 05:07:09;;;;;;;1.95;1.20;;;;;;;23.31;47.36;101441.06;16107204;19;129702;-59
2023/08/24 05:12:33;;;;;;;2.70;1.10;;;;;;;23.31;47.39;101438.28;16106895;19;130002;-59
2023/08/24 05:17:56;;;;;;;3.28;1.13;;;;;;;23.29;47.33;101424.56;16108220;19;131574;-59
2023/08/24 05:23:18;;;;;;;3.40;1.83;;;;;;;23.31;47.34;101427.94;16105538;19;130961;-58
2023/08/24 05:28:40;;;;;;;4.68;1.38;;;;;;;23.38;47.71;101421.31;16114669;19;131365;-59
2023/08/24 05:34:02;;;;;;;4.85;1.50;;;;;;;23.44;47.57;101409.06;16109656;19;131020;-57
2023/08/24 05:39:24;;;;;;;3.55;1.10;;;;;;;23.48;47.40;101397.09;16107996;19;129559;-60
2023/08/24 05:44:49;;;;;;;5.00;1.63;;;;;;;23.52;47.32;101397.38;16111644;19;130325;-61
2023/08/24 05:50:11;;;;;;;4.85;1.63;;;;;;;23.56;47.26;101389.34;16123274;19;129617;-60
2023/08/24 05:55:33;;;;;;;3.95;1.35;;;;;;;23.60;47.48;101388.56;16123772;19;129556;-60
2023/08/24 06:00:57;;;;;;;4.82;1.90;;;;;;;23.64;47.28;101375.72;16122966;19;130401;-60
2023/08/24 06:06:19;;;;;;;2.58;1.50;;;;;;;23.70;47.24;101357.03;16119411;19;130128;-60
2023/08/24 06:11:41;;;;;;;5.78;1.70;;;;;;;23.69;47.40;101348.94;16121963;19;130217;-60
2023/08/24 06:17:03;;;;;;;5.05;2.00;;;;;;;23.66;47.70;101356.72;16119853;19;130003;-60
2023/08/24 06:22:25;;;;;;;5.07;1.77;;;;;;;23.64;47.66;101356.16;16125171;19;130371;-60
2023/08/24 06:27:47;;;;;;;4.20;1.95;;;;;;;23.61;47.58;101348.34;16120136;19;129538;-62
2023/08/24 06:33:10;;;;;;;7.30;1.90;;;;;;;23.59;47.45;101344.13;16123533;19;129728;-59
2023/08/24 06:38:33;;;;;;;4.93;1.65;;;;;;;23.56;47.32;101356.66;16119359;19;131506;-59
2023/08/24 06:43:55;;;;;;;4.80;1.95;;;;;;;23.54;47.31;101336.53;16119518;19;129548;-63
2023/08/24 06:49:18;;;;;;;3.85;1.85;;;;;;;23.54;47.25;101330.94;16121949;19;131033;-63
2023/08/24 06:54:40;;;;;;;2.92;1.75;;;;;;;23.53;47.05;101340.41;16119097;19;129477;-62
2023/08/24 07:00:06;;;;;;;4.72;1.80;;;;;;;23.53;47.48;101334.84;16120824;19;129795;-62
2023/08/24 07:05:28;;;;;;;3.75;1.83;;;;;;;23.55;47.69;101354.13;16120980;19;129420;-63
2023/08/24 07:10:50;;;;;;;4.72;1.92;;;;;;;23.53;47.33;101351.59;16122378;19;129455;-63
2023/08/24 07:16:13;;;;;;;2.53;1.70;;;;;;;23.53;47.71;101347.97;16117649;19;129542;-60
2023/08/24 07:21:35;;;;;;;6.05;1.95;;;;;;;23.53;47.45;101340.41;16116521;19;129679;-59
2023/08/24 07:26:58;;;;;;;6.60;1.75;;;;;;;23.54;47.45;101339.31;16117434;19;129710;-60
2023/08/24 07:32:20;;;;;;;3.15;1.90;;;;;;;23.54;47.35;101333.72;16118911;19;130237;-60
2023/08/24 07:37:42;;;;;;;4.80;2.13;;;;;;;23.54;47.48;101333.72;16119435;19;130777;-59
2023/08/24 07:43:04;;;;;;;2.53;1.60;;;;;;;23.53;47.41;101329.25;16117023;19;130565;-60
2023/08/24 07:48:26;;;;;;;5.22;2.10;;;;;;;23.54;47.39;101344.06;16114021;19;130878;-60
2023/08/24 07:53:50;;;;;;;4.63;1.67;;;;;;;23.54;47.62;101344.91;16119565;19;129418;-59
2023/08/24 07:59:12;;;;;;;6.05;2.00;;;;;;;23.55;47.62;101337.38;16117047;19;131220;-59
2023/08/24 08:04:34;;;;;;;2.60;1.70;;;;;;;23.54;47.41;101325.34;16112329;19;131286;-60
2023/08/24 08:09:57;;;;;;;2.60;1.90;;;;;;;23.54;47.43;101330.94;16113535;19;130153;-59
2023/08/24 08:15:19;;;;;;;2.63;1.48;;;;;;;23.53;47.77;101329.25;16113989;19;132803;-59
2023/08/24 08:20:41;;;;;;;2.28;1.70;;;;;;;23.54;47.59;101325.34;16114867;19;129592;-59
2023/08/24 08:26:03;;;;;;;2.38;1.60;;;;;;;23.53;47.32;101309.69;16115832;19;131507;-59
2023/08/24 08:31:25;;;;;;;1.95;1.58;;;;;;;23.54;47.50;101296.59;16115054;19;129919;-60
2023/08/24 08:36:47;;;;;;;4.30;1.83;;;;;;;23.53;47.64;101270.59;16112442;19;131292;-59
2023/08/24 08:42:14;;;;;;;3.30;1.88;;;;;;;23.53;47.45;101259.44;16112778;19;130390;-59
2023/08/24 08:47:37;;;;;;;3.00;1.83;;;;;;;23.55;47.45;101248.00;16108667;19;129525;-59
2023/08/24 08:52:59;;;;;;;4.03;1.88;;;;;;;23.59;47.48;101238.84;16109027;19;134185;-59
2023/08/24 08:58:22;;;;;;;3.67;1.85;;;;;;;23.65;47.46;101228.53;16111447;19;129584;-59
2023/08/24 09:03:45;;;;;;;3.65;1.77;;;;;;;23.68;47.56;101229.94;16113684;19;131011;-59
2023/08/24 09:09:07;;;;;;;3.92;1.77;;;;;;;23.69;47.87;101234.41;16109899;19;131117;-60
2023/08/24 09:14:29;;;;;;;4.03;2.00;;;;;;;23.71;47.91;101252.56;16108736;19;129529;-59
2023/08/24 09:19:57;;;;;;;2.85;1.80;;;;;;;23.74;47.45;101273.53;16115604;19;129498;-59
2023/08/24 09:25:19;;;;;;;2.58;1.73;;;;;;;23.75;47.54;101303.16;16130122;19;133517;-59
2023/08/24 09:30:45;;;;;;;4.03;1.90;;;;;;;23.74;47.42;101288.34;16128872;19;130486;-59
2023/08/24 09:36:07;;;;;;;4.55;1.92;;;;;;;23.74;47.92;101293.94;16125320;19;130597;-59
2023/08/24 09:41:39;;;;;;;4.63;2.00;;;;;;;23.75;47.63;101298.41;16124921;19;130598;-59
2023/08/24 09:47:01;;;;;;;2.97;1.45;;;;;;;23.73;47.70;101310.97;16126000;19;130430;-59
2023/08/24 09:52:28;;;;;;;5.68;1.50;;;;;;;23.73;47.66;101333.31;16125151;19;130589;-59
2023/08/24 09:57:57;;;;;;;3.38;1.90;;;;;;;23.72;47.88;101387.50;16124883;19;130797;-59
2023/08/24 10:03:21;;;;;;;3.17;1.70;;;;;;;23.69;47.96;101441.09;16123353;19;130507;-59
2023/08/24 10:08:48;;;;;;;5.93;2.05;;;;;;;23.66;47.91;101448.91;16125079;19;129806;-59
2023/08/24 10:14:18;;;;;;;3.60;1.63;;;;;;;23.66;47.62;101446.13;16122781;19;130611;-60
2023/08/24 10:19:42;;;;;;;3.05;1.63;;;;;;;23.64;48.07;101406.44;16125519;19;130038;-60
2023/08/24 10:25:06;;;;;;;4.35;1.70;;;;;;;23.62;47.90;101394.72;16125552;19;130559;-59
2023/08/24 10:30:30;;;;;;;4.35;1.95;;;;;;;23.62;47.93;101349.16;16123887;19;130065;-59
2023/08/24 10:35:53;;;;;;;4.95;1.83;;;;;;;23.60;47.76;101341.06;16122993;19;130976;-59
2023/08/24 10:41:15;;;;;;;3.90;1.88;;;;;;;23.58;48.13;101332.13;16122224;19;129570;-58
2023/08/24 10:46:37;;;;;;;2.65;1.48;;;;;;;23.58;47.70;101306.97;16118795;19;130978;-59
2023/08/24 10:52:18;;;;;;;3.20;1.63;;;;;;;23.58;47.99;101273.47;16119393;19;129741;-59
2023/08/24 10:57:43;;;;;;;3.00;1.73;;;;;;;23.58;48.29;101241.84;16120921;19;130737;-60
2023/08/24 11:03:09;;;;;;;3.20;1.85;;;;;;;23.54;48.24;101194.09;16115789;19;130993;-60
2023/08/24 11:08:44;;;;;;;3.40;1.85;;;;;;;23.57;48.02;101201.09;16122491;19;130924;-60
2023/08/24 11:14:22;;;;;;;4.73;1.80;;;;;;;23.58;48.15;101147.78;16121904;19;130833;-60
2023/08/24 11:19:51;;;;;;;4.15;1.48;;;;;;;23.60;48.10;101184.66;16121197;19;130987;-59
2023/08/24 11:25:13;;;;;;;6.28;1.80;;;;;;;23.61;48.23;101147.25;16121224;19;130777;-59
2023/08/24 11:30:35;;;;;;;5.85;1.70;;;;;;;23.68;48.03;101132.16;16121385;19;129740;-59
2023/08/24 11:35:59;;;;;;;2.60;1.65;;;;;;;23.70;48.03;101122.38;16121103;19;130140;-59
2023/08/24 11:41:21;;;;;;;3.17;1.70;;;;;;;23.72;48.09;101124.94;16129814;19;131378;-58
2023/08/24 11:46:43;;;;;;;7.55;1.98;;;;;;;23.74;48.35;101145.03;16178772;19;129956;-58
2023/08/24 11:52:05;;;;;;;3.83;2.00;;;;;;;23.74;48.60;101151.47;16171751;19;131397;-58
2023/08/24 11:57:28;;;;;;;2.90;1.85;;;;;;;23.76;48.48;101151.16;16172344;19;130025;-59
2023/08/24 12:02:50;;;;;;;2.17;1.52;;;;;;;23.77;48.37;101166.81;16164450;19;129630;-58
2023/08/24 12:08:12;;;;;;;7.13;1.77;;;;;;;23.77;48.51;101176.06;16159375;19;130080;-58
2023/08/24 12:13:34;;;;;;;5.05;1.50;;;;;;;23.77;48.33;101201.19;16147042;19;131865;-60
2023/08/24 12:19:03;;;;;;;3.40;1.90;;;;;;;23.78;48.43;101197.28;16131931;19;130348;-60
2023/08/24 12:24:25;;;;;;;3.92;1.77;;;;;;;23.79;48.60;101214.88;16130271;19;130202;-60
2023/08/24 12:29:47;;;;;;;5.22;1.70;;;;;;;23.78;48.45;101186.13;16130978;19;129641;-59
2023/08/24 12:35:09;;;;;;;3.08;1.40;;;;;;;23.78;48.40;101176.88;16121694;19;130379;-59
2023/08/24 12:40:31;;;;;;;3.58;1.73;;;;;;;23.77;48.58;101172.41;16117983;19;129179;-59
2023/08/24 12:45:53;;;;;;;3.72;1.75;;;;;;;23.77;48.79;101166.81;16113322;19;129522;-59
2023/08/24 12:51:16;;;;;;;7.00;1.90;;;;;;;23.75;48.89;101163.50;16115896;19;131063;-59
2023/08/24 12:56:40;;;;;;;2.22;1.48;;;;;;;23.74;48.39;101172.97;16112596;19;129568;-59
2023/08/24 13:02:02;;;;;;;4.50;1.58;;;;;;;23.72;48.78;101161.25;16115402;19;129780;-54
2023/08/24 13:07:24;;;;;;;2.78;1.88;;;;;;;23.72;48.83;101166.81;16114470;19;130800;-59
2023/08/24 13:12:46;;;;;;;2.85;1.60;;;;;;;23.69;48.84;101148.66;16113693;19;131175;-60
2023/08/24 13:18:09;;;;;;;2.17;1.50;;;;;;;23.70;48.70;101149.50;16116625;19;130293;-59
2023/08/24 13:23:31;;;;;;;2.75;1.60;;;;;;;23.69;48.73;101142.22;16116645;19;130927;-60
2023/08/24 13:28:54;;;;;;;4.00;1.40;;;;;;;23.67;48.76;101136.94;16115938;19;129548;-59
2023/08/24 13:34:16;;;;;;;1.95;1.50;;;;;;;23.66;48.87;101147.25;16114932;19;130359;-59
2023/08/24 13:39:38;;;;;;;2.17;1.55;;;;;;;23.66;48.71;101144.47;16114196;19;129694;-59
2023/08/24 13:45:00;;;;;;;2.33;1.50;;;;;;;23.66;49.02;101122.09;16109373;19;130601;-59
2023/08/24 13:50:22;;;;;;;3.83;1.80;;;;;;;23.65;48.81;101114.03;16110615;19;129559;-58
2023/08/24 13:55:44;;;;;;;3.63;1.38;;;;;;;23.64;48.85;101106.75;16113796;19;133445;-59
2023/08/24 14:01:06;;;;;;;2.60;1.40;;;;;;;23.65;48.96;101081.31;16110069;19;129238;-59
2023/08/24 14:06:29;;;;;;;2.70;1.52;;;;;;;23.66;48.93;101076.59;16113097;19;130951;-59
2023/08/24 14:11:51;;;;;;;3.15;1.60;;;;;;;23.66;48.98;101059.84;16126016;19;130379;-56
2023/08/24 14:17:13;;;;;;;2.85;1.67;;;;;;;23.66;48.90;101052.28;16123922;19;131040;-58
2023/08/24 14:22:35;;;;;;;1.75;1.40;;;;;;;23.68;48.91;101067.94;16126023;19;129556;-59
2023/08/24 14:27:57;;;;;;;2.58;1.40;;;;;;;23.69;48.82;101086.38;16124262;19;130569;-60
2023/08/24 14:33:27;;;;;;;2.38;1.45;;;;;;;23.69;49.01;101091.94;16126645;19;129388;-60
2023/08/24 14:38:51;;;;;;;2.22;1.40;;;;;;;23.69;48.97;101095.59;16121787;19;131131;-60
2023/08/24 14:44:14;;;;;;;2.55;1.58;;;;;;;23.71;48.93;101098.09;16126737;19;129644;-59
2023/08/24 14:49:36;;;;;;;2.83;1.60;;;;;;;23.71;49.13;101090.56;16122375;19;131248;-59
2023/08/24 14:54:58;;;;;;;2.42;1.52;;;;;;;23.71;49.02;101084.97;16123506;19;130043;-59
2023/08/24 15:00:20;;;;;;;2.63;1.20;;;;;;;23.71;49.02;101070.19;16122492;19;129456;-59
2023/08/24 15:05:44;;;;;;;2.83;1.23;;;;;;;23.72;49.46;101064.31;16119366;19;130929;-59
2023/08/24 15:11:06;;;;;;;2.67;1.33;;;;;;;23.72;49.31;101057.88;16111287;19;130147;-59
2023/08/24 15:16:29;;;;;;;2.15;1.35;;;;;;;23.72;48.90;101063.47;16117873;19;129591;-59
2023/08/24 15:21:51;;;;;;;2.63;1.50;;;;;;;23.73;49.24;101062.38;16117421;19;130560;-59
2023/08/24 15:27:13;;;;;;;1.75;1.27;;;;;;;23.72;49.37;101041.94;16102219;19;130234;-58
2023/08/24 15:32:35;;;;;;;1.75;1.15;;;;;;;23.73;49.21;101031.63;16117946;19;129248;-58
2023/08/24 15:37:57;;;;;;;1.70;1.17;;;;;;;23.74;49.61;101016.56;16117770;19;129896;-59
2023/08/24 15:43:18;;;;;;;2.30;1.45;;;;;;;23.74;48.95;100994.22;16116201;19;129469;-60
2023/08/24 15:48:40;;;;;;;2.67;1.50;;;;;;;23.74;49.41;100980.25;16116407;19;130076;-59
2023/08/24 15:54:02;;;;;;;3.00;1.40;;;;;;;23.74;49.62;100978.28;16119683;19;129684;-59
2023/08/24 15:59:25;;;;;;;1.48;1.20;;;;;;;23.75;49.26;100962.38;16116480;19;130603;-59
2023/08/24 16:04:46;;;;;;;2.88;1.60;;;;;;;23.76;48.99;100983.56;16111407;19;130940;-59
2023/08/24 16:10:09;;;;;;;3.95;1.33;;;;;;;23.77;49.54;100988.03;16112735;19;130978;-58
2023/08/24 16:15:31;;;;;;;2.53;1.20;;;;;;;23.77;49.40;100957.31;16108444;19;131108;-59
2023/08/24 16:20:53;;;;;;;3.35;1.35;;;;;;;23.74;50.47;100936.38;16111421;19;130647;-54
2023/08/24 16:26:15;;;;;;;6.75;1.20;;;;;;;23.79;50.85;100936.38;16111395;19;129606;-58
2023/08/24 16:31:37;;;;;;;4.60;1.60;;;;;;;23.86;50.80;100922.13;16117855;19;130524;-59
2023/08/24 16:37:01;;;;;;;4.13;1.15;;;;;;;23.87;50.64;100917.34;16110485;19;134849;-61
2023/08/24 16:42:23;;;;;;;3.03;1.00;;;;;;;23.89;50.58;100927.13;16110740;19;129530;-62
2023/08/24 16:47:45;;;;;;;3.15;1.25;;;;;;;23.92;49.96;100915.38;16110993;19;130938;-61
2023/08/24 16:53:07;;;;;;;6.68;1.55;;;;;;;23.95;50.58;100900.84;16109190;19;129908;-61
2023/08/24 16:58:29;;;;;;;8.60;1.60;;;;;;;23.97;50.78;100904.22;16111497;19;130776;-62
2023/08/24 17:03:52;;;;;;;6.95;2.20;;;;;;;23.99;50.82;100905.88;16111124;19;129453;-61
2023/08/24 17:09:14;;;;;;;9.57;2.00;;;;;;;24.00;51.09;100896.38;16111443;19;130245;-61
2023/08/24 17:14:37;;;;;;;7.07;1.83;;;;;;;23.99;50.76;100903.09;16110102;19;132712;-62
2023/08/24 17:19:59;;;;;;;7.13;1.60;;;;;;;23.96;50.94;100908.13;16110251;19;130937;-61
2023/08/24 17:25:21;;;;;;;3.15;1.33;;;;;;;23.96;51.07;100899.75;16112345;19;131169;-60
2023/08/24 17:30:47;;;;;;;3.70;1.55;;;;;;;23.99;50.90;100891.91;16113194;19;130223;-61
2023/08/24 17:36:09;;;;;;;3.83;1.23;;;;;;;23.99;51.30;100889.94;16106741;19;129341;-61
2023/08/24 17:41:31;;;;;;;6.03;1.50;;;;;;;23.98;50.82;100899.44;16033472;19;137877;-61
2023/08/24 17:46:53;;;;;;;4.78;1.20;;;;;;;23.92;51.21;100908.97;16123210;19;130816;-61
2023/08/24 17:52:15;;;;;;;6.38;1.70;;;;;;;23.87;51.07;100921.00;16120808;19;130913;-63
2023/08/24 17:57:36;;;;;;;11.45;1.60;;;;;;;23.86;51.25;100926.84;16121245;19;131634;-62
2023/08/24 18:02:58;;;;;;;5.07;1.33;;;;;;;23.84;50.80;100931.88;16122732;19;130329;-62
2023/08/24 18:08:21;;;;;;;3.65;1.30;;;;;;;23.82;51.42;100935.78;16123970;19;129350;-62
2023/08/24 18:13:43;;;;;;;7.82;1.38;;;;;;;23.80;50.84;100938.06;16125884;19;129954;-63
2023/08/24 18:19:05;;;;;;;4.65;1.55;;;;;;;23.78;50.92;100945.88;16119795;19;130818;-62
2023/08/24 18:24:27;;;;;;;4.03;1.30;;;;;;;23.78;51.02;100953.41;16126037;19;129661;-63
2023/08/24 18:29:49;;;;;;;6.13;1.55;;;;;;;23.76;50.86;100938.88;16117604;19;131248;-62
2023/08/24 18:35:11;;;;;;;2.90;1.30;;;;;;;23.74;51.07;100927.16;16123032;19;130453;-62
2023/08/24 18:40:38;;;;;;;5.15;1.40;;;;;;;23.73;51.14;100953.44;16119819;19;129636;-63
2023/08/24 18:46:02;;;;;;;7.65;1.55;;;;;;;23.71;50.94;100962.06;16113844;19;129779;-63
2023/08/24 18:51:25;;;;;;;11.98;1.52;;;;;;;23.73;51.49;100931.06;16110737;19;130601;-63
2023/08/24 18:56:48;;;;;;;7.40;1.63;;;;;;;23.75;50.94;100929.66;16113672;19;130380;-62
2023/08/24 19:02:13;;;;;;;12.80;1.73;;;;;;;23.77;51.09;100927.44;16119028;19;130156;-62
2023/08/24 19:07:36;;;;;;;15.75;1.80;;;;;;;23.80;51.19;100923.22;16118392;19;129936;-62
2023/08/24 19:12:58;;;;;;;10.65;1.67;;;;;;;23.82;51.42;100913.44;16113947;19;129445;-61
2023/08/24 19:18:20;;;;;;;14.77;1.98;;;;;;;23.84;51.41;100895.56;16118304;19;132715;-64
2023/08/24 19:23:42;;;;;;;12.10;1.80;;;;;;;23.84;51.55;100921.56;16113683;19;131615;-63
2023/08/24 19:29:06;;;;;;;14.98;1.85;;;;;;;23.84;51.86;100927.16;16116167;19;130443;-61
2023/08/24 19:34:28;;;;;;;17.25;2.00;;;;;;;23.84;52.08;100907.59;16119211;19;129627;-61
2023/08/24 19:39:50;;;;;;;14.00;2.10;;;;;;;23.86;51.82;100924.06;16118471;19;131680;-57
2023/08/24 19:45:12;;;;;;;19.90;2.05;;;;;;;23.90;51.96;100923.22;16114626;19;130343;-62
2023/08/24 19:50:34;;;;;;;17.80;2.22;;;;;;;23.92;51.83;100923.78;16120980;19;130520;-60
2023/08/24 19:55:56;;;;;;;15.43;2.40;;;;;;;23.92;51.93;100907.00;16116732;19;130081;-61
2023/08/24 20:01:18;;;;;;;17.00;2.40;;;;;;;23.91;51.78;100902.53;16111844;19;129807;-58
2023/08/24 20:06:40;;;;;;;16.38;2.33;;;;;;;23.89;51.40;100927.13;16117953;19;129851;-62
2023/08/24 20:12:03;;;;;;;10.55;2.00;;;;;;;23.89;51.58;100921.53;16117096;19;129752;-61
2023/08/24 20:17:32;;;;;;;9.13;1.38;;;;;;;23.89;51.44;100929.91;16108562;19;129978;-56
2023/08/24 20:22:55;;;;;;;11.75;1.63;;;;;;;23.86;51.60;100924.91;16109072;19;133700;-59
2023/08/24 20:28:17;;;;;;;13.30;1.95;;;;;;;23.87;51.47;100939.72;16113202;19;131121;-56
2023/08/24 20:33:39;;;;;;;6.63;1.77;;;;;;;23.87;51.14;100931.31;16109076;19;134165;-59
2023/08/24 20:39:03;;;;;;;6.63;1.65;;;;;;;23.86;51.53;100940.81;16111449;19;129678;-59
2023/08/24 20:44:25;;;;;;;8.93;1.60;;;;;;;23.84;51.50;100951.44;16110942;19;129620;-64
2023/08/24 20:49:49;;;;;;;6.38;1.67;;;;;;;23.84;51.38;100957.88;16108771;19;130281;-59
2023/08/24 20:55:14;;;;;;;7.15;1.48;;;;;;;23.82;51.28;101007.59;16107668;19;129415;-58
2023/08/24 21:00:36;;;;;;;8.65;1.70;;;;;;;23.81;51.52;101040.31;16108507;19;129572;-60
2023/08/24 21:05:58;;;;;;;3.65;1.50;;;;;;;23.80;51.65;101086.13;16108399;19;131907;-65
2023/08/24 21:11:20;;;;;;;3.83;1.30;;;;;;;23.79;51.26;101027.72;16105445;19;131177;-62
2023/08/24 21:16:42;;;;;;;5.03;1.55;;;;;;;23.77;51.02;101060.66;16117233;19;130853;-62
2023/08/24 21:22:04;;;;;;;3.53;1.70;;;;;;;23.75;51.40;101052.56;16126933;19;134768;-62
2023/08/24 21:27:27;;;;;;;4.85;1.40;;;;;;;23.76;51.67;100994.75;16123569;19;129879;-64
2023/08/24 21:32:48;;;;;;;6.60;1.48;;;;;;;23.73;51.07;100948.66;16126002;19;130932;-66
2023/08/24 21:38:10;;;;;;;4.85;1.38;;;;;;;23.72;51.49;100929.41;16120350;19;129959;-64
2023/08/24 21:43:33;;;;;;;6.90;1.92;;;;;;;23.70;51.53;100914.88;16115250;19;130826;-62
2023/08/24 21:48:55;;;;;;;6.65;1.60;;;;;;;23.69;51.42;100916.00;16121703;19;130414;-62
2023/08/24 21:54:17;;;;;;;3.20;1.30;;;;;;;23.69;51.21;100913.19;16123292;19;130013;-62
2023/08/24 21:59:40;;;;;;;3.15;1.35;;;;;;;23.69;51.50;100902.03;16119954;19;130187;-63
2023/08/24 22:05:02;;;;;;;5.50;1.38;;;;;;;23.69;51.29;100876.88;16122909;19;131349;-64
2023/08/24 22:10:24;;;;;;;4.28;1.40;;;;;;;23.68;51.52;100876.06;16122085;19;129650;-64
2023/08/24 22:15:50;;;;;;;8.27;1.30;;;;;;;23.66;51.16;100867.94;16121604;19;130039;-63
2023/08/24 22:21:12;;;;;;;6.05;1.30;;;;;;;23.65;51.07;100860.69;16126642;19;130083;-64
2023/08/24 22:26:34;;;;;;;6.00;1.60;;;;;;;23.65;51.12;100868.25;16120803;19;129366;-63
2023/08/24 22:31:56;;;;;;;5.60;1.15;;;;;;;23.63;51.19;100870.47;16118133;19;131199;-62
2023/08/24 22:37:18;;;;;;;3.55;1.27;;;;;;;23.63;51.52;100857.34;16122220;19;129440;-62
2023/08/24 22:42:40;;;;;;;2.60;1.30;;;;;;;23.63;50.86;100870.47;16121708;19;129685;-62
2023/08/24 22:48:02;;;;;;;4.75;1.27;;;;;;;23.61;51.24;100867.97;16119030;19;131602;-62
2023/08/24 22:53:24;;;;;;;2.35;1.08;;;;;;;23.61;51.25;100867.97;16123063;19;129601;-62
2023/08/24 22:58:46;;;;;;;2.70;1.05;;;;;;;23.60;51.05;100857.94;16118657;19;129607;-62
2023/08/24 23:04:08;;;;;;;2.83;1.40;;;;;;;23.60;51.11;100874.69;16116511;19;129693;-62
2023/08/24 23:09:30;;;;;;;4.25;1.10;;;;;;;23.59;51.03;100864.63;16116267;19;130835;-62
2023/08/24 23:14:52;;;;;;;3.28;1.23;;;;;;;23.58;51.23;100868.53;16116768;19;129436;-62
2023/08/24 23:20:16;;;;;;;3.90;1.55;;;;;;;23.58;51.06;100862.94;16120115;19;130762;-62
2023/08/24 23:25:37;;;;;;;3.20;0.90;;;;;;;23.57;51.08;100858.44;16118512;19;129521;-62
2023/08/24 23:31:00;;;;;;;3.00;1.00;;;;;;;23.56;51.08;100858.75;16116174;19;130582;-62
2023/08/24 23:36:22;;;;;;;2.22;0.93;;;;;;;23.55;51.06;100851.47;16121734;19;129714;-62
2023/08/24 23:41:44;;;;;;;2.90;1.13;;;;;;;23.54;51.02;100844.22;16116754;19;132411;-62
2023/08/24 23:47:06;;;;;;;2.20;1.00;;;;;;;23.54;50.79;100849.81;16117215;19;129731;-62
2023/08/24 23:52:29;;;;;;;2.58;1.30;;;;;;;23.52;51.00;100847.28;16114328;19;131497;-62
2023/08/24 23:57:52;;;;;;;2.90;1.05;;;;;;;23.52;51.36;100838.91;16113584;19;129626;-63
